Time;durP1;ratioP1;P1;durP2;ratioP2;P2;SDS_P1;SDS_P2;PMS_P1;PMS_P2;Temp;Humidity;BMP_temperature;BMP_pressure;BME280_temperature;BME280_humidity;BME280_pressure;Samples;Min_cycle;Max_cycle;Signal;HPM_P1;HPM_P2
2022/06/14 00:00:53;;;;;;;;;3.50;2.25;23.00;99.90;;;;;;5064950;27;8863;-50
2022/06/14 00:03:38;;;;;;;;;2.25;2.25;23.10;99.90;;;;;;5065916;28;8861;-46
2022/06/14 00:06:20;;;;;;;;;3.50;2.25;23.10;99.90;;;;;;5060026;28;8858;-47
2022/06/14 00:08:51;;;;;;;;;2.50;2.25;23.20;99.90;;;;;;5073741;27;8992;-47
2022/06/14 00:11:28;;;;;;;;;2.50;2.50;23.10;99.90;;;;;;5063772;28;8851;-46
2022/06/14 00:14:00;;;;;;;;;2.25;2.25;23.20;99.90;;;;;;5069259;28;9560;-49
2022/06/14 00:16:32;;;;;;;;;4.00;4.00;23.20;99.90;;;;;;5065550;28;9457;-49
2022/06/14 00:19:04;;;;;;;;;2.00;2.00;23.20;99.90;;;;;;5061589;28;9584;-48
2022/06/14 00:21:36;;;;;;;;;2.75;2.25;23.30;99.90;;;;;;5060634;28;8874;-46
2022/06/14 00:24:07;;;;;;;;;2.75;2.75;23.30;99.90;;;;;;5064613;28;8828;-50
2022/06/14 00:26:38;;;;;;;;;1.75;1.75;23.30;99.90;;;;;;5059705;28;8984;-56
2022/06/14 00:29:09;;;;;;;;;2.75;2.75;23.40;99.90;;;;;;5067781;28;8856;-54
2022/06/14 00:31:40;;;;;;;;;2.50;2.50;23.30;99.90;;;;;;5048821;28;9008;-56
2022/06/14 00:34:10;;;;;;;;;3.75;3.75;23.40;99.90;;;;;;5066155;28;8988;-55
2022/06/14 00:36:53;;;;;;;;;3.25;3.25;23.40;99.90;;;;;;5059934;28;8874;-51
2022/06/14 00:39:24;;;;;;;;;5.00;3.50;23.00;99.90;;;;;;5063801;28;8831;-58
2022/06/14 00:41:57;;;;;;;;;2.00;2.00;23.10;99.90;;;;;;5062643;28;8844;-58
2022/06/14 00:44:30;;;;;;;;;3.00;3.00;23.00;99.90;;;;;;5061601;28;10172;-56
2022/06/14 00:47:08;;;;;;;;;4.00;4.00;23.20;99.90;;;;;;5064161;28;8836;-53
2022/06/14 00:50:01;;;;;;;;;4.50;3.00;23.20;99.90;;;;;;5062969;28;8865;-51
2022/06/14 00:52:46;;;;;;;;;3.00;3.00;23.20;99.90;;;;;;5064720;28;9547;-48
2022/06/14 00:55:27;;;;;;;;;3.75;3.25;23.10;99.90;;;;;;5059074;28;8871;-57
2022/06/14 00:58:13;;;;;;;;;3.25;2.25;23.10;99.90;;;;;;5063252;28;8830;-63
2022/06/14 01:00:52;;;;;;;;;4.25;4.25;23.10;99.90;;;;;;5056430;28;8876;-60
2022/06/14 01:03:26;;;;;;;;;3.75;3.25;23.00;99.90;;;;;;5034145;28;8832;-61
2022/06/14 01:06:30;;;;;;;;;2.00;2.00;22.90;99.90;;;;;;5045692;28;9000;-62
2022/06/14 01:09:34;;;;;;;;;3.00;3.00;22.90;99.90;;;;;;5028748;28;8908;-62
2022/06/14 01:12:11;;;;;;;;;5.25;4.00;22.80;99.90;;;;;;5073120;28;10084;-66
2022/06/14 01:18:03;;;;;;;;;3.50;3.50;22.60;99.90;;;;;;5040727;23;8926;-48
2022/06/14 01:20:35;;;;;;;;;4.75;4.75;22.50;99.90;;;;;;4954942;28;8904;-56
2022/06/14 01:23:08;;;;;;;;;4.00;2.25;22.50;99.90;;;;;;4937365;28;9938;-54
2022/06/14 01:25:43;;;;;;;;;3.00;3.00;22.30;99.90;;;;;;4932351;28;8962;-60
2022/06/14 01:28:16;;;;;;;;;4.00;4.00;22.40;99.90;;;;;;4929026;28;8855;-60
2022/06/14 01:30:51;;;;;;;;;7.50;4.50;22.30;99.90;;;;;;4951928;28;8849;-60
2022/06/14 01:33:39;;;;;;;;;4.00;4.00;22.30;99.90;;;;;;4943470;28;8868;-59
2022/06/14 01:36:17;;;;;;;;;5.00;4.25;22.30;99.90;;;;;;4955029;28;8865;-60
2022/06/14 01:38:48;;;;;;;;;6.00;4.25;22.10;99.90;;;;;;4952674;28;8852;-60
2022/06/14 01:41:18;;;;;;;;;4.75;4.00;22.20;99.90;;;;;;4950922;28;8869;-61
2022/06/14 01:44:12;;;;;;;;;3.25;3.25;22.30;99.90;;;;;;4927853;28;8888;-61
2022/06/14 01:47:10;;;;;;;;;8.25;5.00;22.30;99.90;;;;;;4947528;28;8834;-59
2022/06/14 01:53:04;;;;;;;;;0.00;0.00;22.10;99.90;;;;;;4952131;28;8853;-54
2022/06/14 01:56:04;;;;;;;;;3.50;3.50;22.10;99.90;;;;;;4945328;28;8929;-59
2022/06/14 01:59:16;;;;;;;;;4.00;4.00;22.20;99.90;;;;;;4950524;28;8875;-58
2022/06/14 02:01:58;;;;;;;;;3.75;3.75;22.10;99.90;;;;;;4954891;28;8979;-58
2022/06/14 02:04:51;;;;;;;;;4.00;4.00;22.10;99.90;;;;;;4951176;28;8845;-60
2022/06/14 02:07:46;;;;;;;;;3.00;3.00;22.10;99.90;;;;;;4953447;28;8896;-58
2022/06/14 02:10:38;;;;;;;;;3.75;3.00;22.10;99.90;;;;;;4951578;28;8872;-57
2022/06/14 02:13:19;;;;;;;;;4.75;3.25;22.00;99.90;;;;;;4950618;28;8997;-59
2022/06/14 02:16:08;;;;;;;;;5.00;3.25;21.90;99.90;;;;;;4945892;28;8992;-61
2022/06/14 02:18:48;;;;;;;;;3.75;3.50;21.90;99.90;;;;;;4950705;28;8875;-61
2022/06/14 02:21:26;;;;;;;;;3.25;3.25;22.00;99.90;;;;;;4947075;28;8860;-60
2022/06/14 02:24:20;;;;;;;;;5.00;5.00;22.00;99.90;;;;;;4957930;28;8857;-60
2022/06/14 02:27:22;;;;;;;;;4.25;4.00;21.90;99.90;;;;;;4953751;28;8927;-59
2022/06/14 02:30:09;;;;;;;;;4.00;4.00;21.90;99.90;;;;;;4898963;28;8853;-59
2022/06/14 02:32:57;;;;;;;;;4.00;2.50;21.90;99.90;;;;;;4931840;28;8857;-60
2022/06/14 02:35:38;;;;;;;;;4.33;3.67;21.80;99.90;;;;;;4951524;28;8843;-59
2022/06/14 02:38:16;;;;;;;;;2.00;2.00;21.80;99.90;;;;;;4952908;28;8853;-59
2022/06/14 02:41:03;;;;;;;;;4.00;2.50;21.80;99.90;;;;;;4950403;28;8833;-57
2022/06/14 02:43:45;;;;;;;;;2.00;2.00;21.70;99.90;;;;;;4934128;28;8970;-61
2022/06/14 02:47:05;;;;;;;;;4.00;4.00;21.70;99.90;;;;;;4938641;28;8844;-59
2022/06/14 02:49:47;;;;;;;;;6.25;5.00;21.70;99.90;;;;;;4873485;29;8845;-61
2022/06/14 02:52:29;;;;;;;;;6.00;4.75;21.60;99.90;;;;;;4957982;28;8873;-61
2022/06/14 02:55:24;;;;;;;;;1.75;1.75;21.60;99.90;;;;;;4957235;28;8847;-59
2022/06/14 02:57:58;;;;;;;;;3.00;3.00;21.50;99.90;;;;;;4961509;28;8864;-59
2022/06/14 03:00:37;;;;;;;;;4.25;3.50;21.50;99.90;;;;;;4951832;28;8856;-60
2022/06/14 03:03:12;;;;;;;;;2.67;2.67;21.50;99.90;;;;;;4959933;28;8999;-59
2022/06/14 03:05:55;;;;;;;;;2.00;2.00;21.40;99.90;;;;;;4956461;28;8956;-58
2022/06/14 03:08:35;;;;;;;;;3.67;3.67;21.30;99.90;;;;;;4955424;28;9837;-59
2022/06/14 03:11:28;;;;;;;;;4.67;4.67;21.20;99.90;;;;;;4958724;28;8925;-59
2022/06/14 03:14:27;;;;;;;;;3.75;3.75;21.20;99.90;;;;;;4958530;28;9133;-60
2022/06/14 03:17:15;;;;;;;;;4.00;4.00;21.20;99.90;;;;;;4943503;28;8882;-60
2022/06/14 03:20:06;;;;;;;;;3.00;3.00;21.10;99.90;;;;;;4939149;28;9089;-59
2022/06/14 03:23:12;;;;;;;;;3.67;3.67;21.10;99.90;;;;;;4908081;28;8954;-60
2022/06/14 03:25:56;;;;;;;;;4.33;4.33;21.00;99.90;;;;;;4933704;28;9054;-59
2022/06/14 03:28:38;;;;;;;;;7.00;5.67;20.90;99.90;;;;;;4939259;28;9186;-60
2022/06/14 03:31:30;;;;;;;;;2.67;2.67;20.80;99.90;;;;;;4917155;28;9220;-61
2022/06/14 03:34:20;;;;;;;;;6.67;4.00;20.80;99.90;;;;;;4937725;28;9105;-60
2022/06/14 03:36:53;;;;;;;;;4.00;3.67;20.80;99.90;;;;;;4939030;28;9228;-60
2022/06/14 03:39:33;;;;;;;;;6.33;5.00;20.70;99.90;;;;;;4938466;28;9240;-58
2022/06/14 03:42:05;;;;;;;;;4.33;3.00;20.70;99.90;;;;;;4937251;28;9254;-61
2022/06/14 03:44:36;;;;;;;;;3.00;3.00;20.70;99.90;;;;;;4936340;28;9992;-60
2022/06/14 03:47:20;;;;;;;;;5.00;5.00;20.70;99.90;;;;;;4937484;28;10464;-61
2022/06/14 03:49:55;;;;;;;;;3.33;3.33;20.70;99.90;;;;;;4934049;28;9370;-60
2022/06/14 03:52:37;;;;;;;;;2.00;2.00;20.60;99.90;;;;;;4938891;28;9454;-59
2022/06/14 03:55:37;;;;;;;;;4.33;3.33;20.60;99.90;;;;;;4932671;28;9410;-60
2022/06/14 03:58:10;;;;;;;;;6.00;6.00;20.60;99.90;;;;;;4937958;28;9380;-60
2022/06/14 04:00:56;;;;;;;;;3.67;3.33;20.60;99.90;;;;;;4936627;28;9432;-60
2022/06/14 04:03:51;;;;;;;;;2.00;2.00;20.50;99.90;;;;;;4933577;28;9462;-60
2022/06/14 04:06:39;;;;;;;;;0.67;0.67;20.50;99.90;;;;;;4943202;28;9033;-60
2022/06/14 04:09:22;;;;;;;;;5.00;3.67;20.40;99.90;;;;;;4938061;28;9346;-61
2022/06/14 04:12:14;;;;;;;;;4.00;4.00;20.40;99.90;;;;;;4931790;28;9408;-60
2022/06/14 04:15:21;;;;;;;;;3.67;3.67;20.30;99.90;;;;;;4941761;28;9990;-61
2022/06/14 04:18:34;;;;;;;;;3.00;3.00;20.30;99.90;;;;;;4935537;28;9440;-60
2022/06/14 04:21:31;;;;;;;;;3.00;3.00;20.20;99.90;;;;;;4935400;28;9421;-61
2022/06/14 04:24:09;;;;;;;;;4.67;4.67;20.10;99.90;;;;;;4924160;28;9574;-62
2022/06/14 04:26:53;;;;;;;;;7.00;3.67;20.10;99.90;;;;;;4931337;28;9268;-60
2022/06/14 04:29:32;;;;;;;;;3.00;3.00;20.20;99.90;;;;;;4925902;28;9339;-61
2022/06/14 04:32:17;;;;;;;;;6.33;3.33;20.20;99.90;;;;;;4914386;28;9308;-59
2022/06/14 04:35:11;;;;;;;;;6.67;6.67;20.10;99.90;;;;;;4930233;28;9497;-59
2022/06/14 04:38:05;;;;;;;;;5.00;5.00;20.10;99.90;;;;;;4933837;28;9746;-60
2022/06/14 04:40:43;;;;;;;;;6.33;6.33;20.10;99.90;;;;;;4934300;28;9686;-59
2022/06/14 04:43:30;;;;;;;;;4.67;3.67;20.00;99.90;;;;;;4930331;28;9514;-58
2022/06/14 04:46:08;;;;;;;;;3.00;1.33;20.00;99.90;;;;;;4914416;28;9457;-60
2022/06/14 04:49:14;;;;;;;;;5.67;4.33;20.00;99.90;;;;;;4935142;28;9486;-61
2022/06/14 04:51:50;;;;;;;;;6.25;5.50;19.90;99.90;;;;;;4910439;28;10124;-61
2022/06/14 04:54:35;;;;;;;;;4.00;4.00;19.90;99.90;;;;;;4924936;28;9641;-60
2022/06/14 04:57:31;;;;;;;;;4.67;4.67;19.90;99.90;;;;;;4931858;28;10273;-59
2022/06/14 05:00:11;;;;;;;;;5.75;4.00;19.90;99.90;;;;;;4926928;28;10253;-59
2022/06/14 05:02:56;;;;;;;;;4.67;3.00;19.80;99.90;;;;;;4933476;28;9598;-58
2022/06/14 05:05:33;;;;;;;;;5.00;3.67;19.80;99.90;;;;;;4930896;28;9440;-59
2022/06/14 05:08:12;;;;;;;;;5.00;5.00;19.70;99.90;;;;;;4933449;28;9562;-60
2022/06/14 05:11:05;;;;;;;;;4.00;4.00;19.70;99.90;;;;;;4932277;28;9721;-59
2022/06/14 05:13:55;;;;;;;;;6.00;4.67;19.70;99.90;;;;;;4925578;28;9646;-60
2022/06/14 05:16:58;;;;;;;;;6.00;4.67;19.70;99.90;;;;;;4914596;28;10696;-60
2022/06/14 05:19:40;;;;;;;;;3.67;3.67;19.70;99.90;;;;;;4948800;28;9463;-62
2022/06/14 05:22:18;;;;;;;;;4.00;4.00;19.70;99.90;;;;;;4949155;28;9653;-60
2022/06/14 05:24:49;;;;;;;;;6.00;5.00;19.60;99.90;;;;;;4953481;28;9514;-60
2022/06/14 05:27:43;;;;;;;;;3.33;3.33;19.60;99.90;;;;;;4955251;28;9564;-60
2022/06/14 05:30:24;;;;;;;;;3.75;3.75;19.60;99.90;;;;;;4951303;28;9529;-60
2022/06/14 05:33:04;;;;;;;;;4.00;4.00;19.60;99.90;;;;;;4953258;28;9712;-61
2022/06/14 05:35:52;;;;;;;;;4.00;3.25;19.60;99.90;;;;;;4947852;28;9641;-60
2022/06/14 05:38:39;;;;;;;;;4.25;4.25;19.60;99.90;;;;;;4950553;28;9621;-59
2022/06/14 05:41:24;;;;;;;;;3.50;3.50;19.60;99.90;;;;;;4949382;28;9900;-59
2022/06/14 05:44:06;;;;;;;;;4.75;4.00;19.50;99.90;;;;;;4951154;28;9706;-60
2022/06/14 05:46:57;;;;;;;;;4.00;4.00;19.40;99.90;;;;;;4951096;28;9661;-61
2022/06/14 05:49:41;;;;;;;;;3.33;3.33;19.40;99.90;;;;;;4954571;28;9595;-60
2022/06/14 05:52:24;;;;;;;;;6.00;6.00;19.30;99.90;;;;;;4957958;28;9470;-62
2022/06/14 05:55:10;;;;;;;;;8.00;2.67;19.30;99.90;;;;;;4950929;28;10161;-60
2022/06/14 05:57:54;;;;;;;;;4.00;4.00;19.30;99.90;;;;;;4951203;28;9584;-62
2022/06/14 06:00:30;;;;;;;;;3.00;3.00;19.30;99.90;;;;;;4928731;28;9645;-62
2022/06/14 06:03:27;;;;;;;;;2.75;2.75;19.30;99.90;;;;;;4954130;28;9919;-61
2022/06/14 06:06:26;;;;;;;;;3.25;3.00;19.30;99.90;;;;;;4920585;28;10327;-62
2022/06/14 06:09:20;;;;;;;;;7.00;4.75;19.30;99.90;;;;;;4951042;28;9572;-61
2022/06/14 06:12:08;;;;;;;;;6.50;6.50;19.30;99.90;;;;;;4936014;28;9616;-63
2022/06/14 06:14:51;;;;;;;;;4.50;3.00;19.20;99.90;;;;;;4951019;28;10087;-62
2022/06/14 06:17:49;;;;;;;;;4.75;3.50;19.20;99.90;;;;;;4942688;28;10045;-61
2022/06/14 06:20:36;;;;;;;;;5.50;5.50;19.20;99.90;;;;;;4931200;28;10014;-63
2022/06/14 06:23:28;;;;;;;;;2.50;2.50;19.10;99.90;;;;;;4918500;28;9822;-60
2022/06/14 06:26:00;;;;;;;;;4.75;4.75;19.10;99.90;;;;;;4934219;28;9809;-61
2022/06/14 06:28:39;;;;;;;;;5.25;3.50;19.10;99.90;;;;;;4931570;28;10090;-63
2022/06/14 06:31:37;;;;;;;;;5.00;5.00;19.10;99.90;;;;;;4930328;28;9959;-60
2022/06/14 06:34:13;;;;;;;;;4.50;3.00;19.10;99.90;;;;;;4928122;28;10034;-60
2022/06/14 06:36:53;;;;;;;;;2.50;2.50;19.00;99.90;;;;;;4926009;28;10057;-61
2022/06/14 06:39:49;;;;;;;;;7.25;4.25;19.00;99.90;;;;;;4928405;28;10126;-63
2022/06/14 06:42:43;;;;;;;;;3.25;3.25;18.90;99.90;;;;;;4932300;28;10864;-62
2022/06/14 06:45:20;;;;;;;;;5.50;5.00;18.90;99.90;;;;;;4925413;28;10056;-62
2022/06/14 06:48:03;;;;;;;;;6.75;4.50;19.00;99.90;;;;;;4935839;28;10071;-62
2022/06/14 06:50:38;;;;;;;;;7.25;5.25;19.00;99.90;;;;;;4933234;28;10037;-60
2022/06/14 06:53:16;;;;;;;;;8.50;6.25;19.00;99.90;;;;;;4932863;28;10022;-61
2022/06/14 06:56:11;;;;;;;;;6.00;6.00;18.90;99.90;;;;;;4933591;28;9982;-61
2022/06/14 06:59:17;;;;;;;;;7.00;7.00;18.80;99.90;;;;;;4929423;28;10043;-61
2022/06/14 07:01:51;;;;;;;;;2.00;2.00;18.80;99.90;;;;;;4927825;28;10453;-61
2022/06/14 07:07:48;;;;;;;;;5.00;5.00;18.80;99.90;;;;;;4934358;28;10340;-61
2022/06/14 07:10:39;;;;;;;;;6.00;6.00;18.80;99.90;;;;;;4934007;28;10307;-63
2022/06/14 07:13:27;;;;;;;;;6.75;6.75;18.80;99.90;;;;;;4915025;28;10388;-61
2022/06/14 07:16:28;;;;;;;;;6.25;6.25;18.80;99.90;;;;;;4927932;28;10190;-60
2022/06/14 07:19:35;;;;;;;;;6.75;5.50;18.80;99.90;;;;;;4922000;28;10541;-62
2022/06/14 07:22:59;;;;;;;;;6.50;6.50;18.70;99.90;;;;;;4913139;28;10373;-62
2022/06/14 07:25:34;;;;;;;;;10.00;7.75;18.60;99.90;;;;;;4891586;28;10327;-62
2022/06/14 07:28:24;;;;;;;;;8.00;7.50;18.60;99.90;;;;;;4938871;28;10347;-62
2022/06/14 07:31:02;;;;;;;;;7.25;7.25;18.60;99.90;;;;;;4929208;28;10550;-63
2022/06/14 07:33:35;;;;;;;;;6.25;6.25;18.60;99.90;;;;;;4933354;28;10467;-61
2022/06/14 07:36:26;;;;;;;;;7.25;5.75;18.50;99.90;;;;;;4934404;28;10623;-61
2022/06/14 07:39:08;;;;;;;;;3.00;1.75;18.60;99.90;;;;;;4942343;28;11069;-62
2022/06/14 07:41:56;;;;;;;;;6.50;6.50;18.50;99.90;;;;;;4933716;28;10048;-61
2022/06/14 07:44:34;;;;;;;;;9.00;7.25;18.40;99.90;;;;;;4936490;28;10253;-62
2022/06/14 07:47:26;;;;;;;;;5.50;5.50;18.40;99.90;;;;;;4934114;28;10335;-61
2022/06/14 07:50:06;;;;;;;;;7.25;6.50;18.40;99.90;;;;;;4927332;28;10087;-61
2022/06/14 07:52:49;;;;;;;;;5.00;5.00;18.30;99.90;;;;;;4932811;28;10261;-62
2022/06/14 07:55:27;;;;;;;;;4.25;4.25;18.30;99.90;;;;;;4930981;28;10133;-60
2022/06/14 07:58:13;;;;;;;;;6.00;4.50;18.30;99.90;;;;;;4934692;28;10169;-61
2022/06/14 08:03:46;;;;;;;;;6.00;6.00;18.30;99.90;;;;;;4940611;28;11129;-62
2022/06/14 08:06:33;;;;;;;;;4.50;4.50;18.20;99.90;;;;;;4952032;28;10410;-62
2022/06/14 08:09:22;;;;;;;;;8.50;5.25;18.20;99.90;;;;;;4933875;28;10423;-62
2022/06/14 08:11:58;;;;;;;;;6.25;4.00;18.20;99.90;;;;;;4933879;28;10359;-62
2022/06/14 08:14:54;;;;;;;;;4.25;4.00;18.10;99.90;;;;;;4933222;28;10185;-62
2022/06/14 08:17:50;;;;;;;;;6.25;5.00;18.10;99.90;;;;;;4930584;28;10868;-62
2022/06/14 08:20:27;;;;;;;;;7.50;4.25;18.10;99.90;;;;;;4927602;28;10389;-61
2022/06/14 08:23:06;;;;;;;;;3.50;3.50;18.10;99.90;;;;;;4931088;28;10350;-62
2022/06/14 08:25:41;;;;;;;;;5.25;5.25;18.10;99.90;;;;;;4915208;28;10447;-61
2022/06/14 08:28:15;;;;;;;;;8.75;4.25;18.10;99.90;;;;;;4917703;28;10409;-61
2022/06/14 08:31:02;;;;;;;;;4.25;4.25;18.10;99.90;;;;;;4935234;28;10602;-61
2022/06/14 08:33:45;;;;;;;;;5.00;4.00;18.00;99.90;;;;;;4932698;28;10361;-64
2022/06/14 08:36:37;;;;;;;;;4.75;4.75;18.00;99.90;;;;;;4913732;28;10607;-62
2022/06/14 08:39:13;;;;;;;;;3.50;3.50;17.90;99.90;;;;;;4933842;28;10661;-61
2022/06/14 08:41:58;;;;;;;;;5.50;5.50;17.90;99.90;;;;;;4929538;28;10657;-62
2022/06/14 08:44:57;;;;;;;;;5.75;5.75;17.90;99.90;;;;;;4935699;28;10708;-61
2022/06/14 08:47:41;;;;;;;;;4.25;4.00;17.90;99.90;;;;;;4902400;28;10993;-62
2022/06/14 08:50:22;;;;;;;;;5.25;5.25;17.90;99.90;;;;;;4932269;28;10885;-61
2022/06/14 08:53:32;;;;;;;;;3.50;3.50;17.80;99.90;;;;;;4936724;28;10908;-63
2022/06/14 08:56:21;;;;;;;;;5.25;4.00;17.80;99.90;;;;;;4922459;28;11018;-61
2022/06/14 08:59:19;;;;;;;;;6.25;4.50;17.80;99.90;;;;;;4936530;28;11239;-64
2022/06/14 09:02:30;;;;;;;;;6.75;6.00;17.70;99.90;;;;;;4923173;28;11888;-61
2022/06/14 09:05:34;;;;;;;;;3.50;3.50;17.70;99.90;;;;;;4926152;28;11302;-64
2022/06/14 09:08:04;;;;;;;;;5.25;4.00;17.70;99.90;;;;;;4936367;28;11454;-62
2022/06/14 09:10:56;;;;;;;;;3.50;3.50;17.70;99.90;;;;;;4917999;28;11559;-61
2022/06/14 09:13:52;;;;;;;;;5.75;5.75;17.70;99.90;;;;;;4930537;28;11645;-63
2022/06/14 09:16:53;;;;;;;;;11.00;11.00;17.60;99.90;;;;;;4935194;28;11579;-61
2022/06/14 09:19:31;;;;;;;;;14.00;14.00;17.60;99.90;;;;;;4949770;28;11618;-61
2022/06/14 09:22:23;;;;;;;;;11.75;11.75;17.50;99.90;;;;;;4953333;28;11455;-61
2022/06/14 09:25:16;;;;;;;;;13.50;13.50;17.60;99.90;;;;;;4952110;28;11503;-62
2022/06/14 09:27:49;;;;;;;;;13.50;12.00;17.50;99.90;;;;;;4935856;28;11419;-61
2022/06/14 09:30:35;;;;;;;;;13.50;13.50;17.50;99.90;;;;;;4936197;28;11420;-62
2022/06/14 09:33:23;;;;;;;;;18.75;18.75;17.50;99.90;;;;;;4949307;28;11530;-62
2022/06/14 09:36:31;;;;;;;;;22.00;21.50;17.50;99.90;;;;;;4960930;28;12317;-62
2022/06/14 09:39:39;;;;;;;;;25.25;25.25;17.40;99.90;;;;;;4939970;28;11596;-62
2022/06/14 09:42:37;;;;;;;;;29.50;29.25;17.40;99.90;;;;;;4950385;28;11736;-60
2022/06/14 09:45:10;;;;;;;;;26.50;26.50;17.40;99.90;;;;;;4951682;28;11593;-60
2022/06/14 09:48:11;;;;;;;;;28.75;27.75;17.40;99.90;;;;;;4938059;28;11555;-65
2022/06/14 09:51:22;;;;;;;;;27.75;26.50;17.40;99.90;;;;;;4937586;28;11639;-62
2022/06/14 09:54:10;;;;;;;;;29.25;28.25;17.30;99.90;;;;;;4951357;28;11635;-62
2022/06/14 09:57:14;;;;;;;;;28.00;27.25;17.30;99.90;;;;;;4927861;28;11722;-62
2022/06/14 10:00:13;;;;;;;;;41.50;36.00;17.30;99.90;;;;;;4911752;28;11584;-61
2022/06/14 10:03:14;;;;;;;;;38.25;35.00;17.30;99.90;;;;;;4958937;28;12642;-62
2022/06/14 10:06:11;;;;;;;;;40.00;35.00;17.30;99.90;;;;;;4953165;28;11734;-61
2022/06/14 10:09:04;;;;;;;;;38.00;33.50;17.30;99.90;;;;;;4949331;28;11592;-62
2022/06/14 10:11:35;;;;;;;;;38.75;33.75;17.20;99.90;;;;;;4957465;28;11613;-62
2022/06/14 10:14:42;;;;;;;;;37.25;33.25;17.20;99.90;;;;;;4947326;28;11548;-61
2022/06/14 10:17:36;;;;;;;;;26.75;25.25;17.20;99.90;;;;;;4934427;28;11639;-62
2022/06/14 10:20:17;;;;;;;;;21.75;21.75;17.20;99.90;;;;;;4951363;28;12467;-62
2022/06/14 10:23:02;;;;;;;;;21.25;20.25;17.10;99.90;;;;;;4951042;28;11489;-61
2022/06/14 10:28:11;;;;;;;;;21.75;18.75;17.10;99.90;;;;;;4949975;28;11490;-61
2022/06/14 10:28:51;;;;;;;;;17.75;17.75;17.10;99.90;;;;;;4952543;28;11511;-62
2022/06/14 10:31:49;;;;;;;;;16.25;16.25;17.10;99.90;;;;;;4951190;28;11275;-61
2022/06/14 10:34:37;;;;;;;;;13.50;13.50;17.00;99.90;;;;;;4938123;28;11187;-62
2022/06/14 10:37:40;;;;;;;;;8.50;8.50;17.00;99.90;;;;;;4952474;28;11155;-64
2022/06/14 10:40:41;;;;;;;;;9.25;8.25;17.00;99.90;;;;;;4934414;28;11253;-61
2022/06/14 10:43:40;;;;;;;;;5.75;5.75;16.90;99.90;;;;;;4951507;28;11252;-62
2022/06/14 10:46:34;;;;;;;;;6.75;5.25;16.90;99.90;;;;;;4934313;28;10797;-61
2022/06/14 10:49:42;;;;;;;;;4.00;4.00;16.90;99.90;;;;;;4935309;28;10669;-60
2022/06/14 10:52:39;;;;;;;;;5.50;5.50;16.90;99.90;;;;;;4954940;28;10620;-61
2022/06/14 10:55:29;;;;;;;;;4.75;4.00;16.80;99.90;;;;;;4931318;28;10755;-61
2022/06/14 10:58:05;;;;;;;;;7.75;6.00;16.80;99.90;;;;;;4933489;28;10728;-61
2022/06/14 11:00:51;;;;;;;;;6.00;6.00;16.80;99.90;;;;;;4932489;28;10826;-62
2022/06/14 11:03:30;;;;;;;;;5.00;5.00;16.80;99.90;;;;;;4934319;28;10745;-61
2022/06/14 11:06:15;;;;;;;;;6.00;6.00;16.70;99.90;;;;;;4951167;28;11056;-62
2022/06/14 11:08:51;;;;;;;;;6.25;6.25;16.70;99.90;;;;;;4956009;28;10912;-61
2022/06/14 11:11:33;;;;;;;;;4.75;3.00;16.70;99.90;;;;;;4941381;28;10738;-60
2022/06/14 11:14:13;;;;;;;;;6.00;6.00;16.70;99.90;;;;;;4957954;28;10977;-61
2022/06/14 11:17:16;;;;;;;;;7.00;6.00;16.70;99.90;;;;;;4932217;28;10726;-61
2022/06/14 11:20:14;;;;;;;;;6.00;5.00;16.70;99.90;;;;;;4959263;28;10809;-62
2022/06/14 11:22:54;;;;;;;;;6.00;5.25;16.60;99.90;;;;;;4948309;28;10727;-60
2022/06/14 11:25:44;;;;;;;;;6.00;4.50;16.60;99.90;;;;;;4947836;28;10822;-61
2022/06/14 11:28:43;;;;;;;;;5.00;5.00;16.60;99.90;;;;;;4940611;28;10557;-62
2022/06/14 11:31:52;;;;;;;;;8.25;6.25;16.60;99.90;;;;;;4954411;28;10741;-61
2022/06/14 11:34:31;;;;;;;;;3.75;3.75;16.60;99.90;;;;;;4931513;28;10868;-62
2022/06/14 11:37:28;;;;;;;;;3.00;3.00;16.50;99.90;;;;;;4952568;28;11418;-61
2022/06/14 11:40:08;;;;;;;;;6.00;6.00;16.50;99.90;;;;;;4954393;28;10815;-62
2022/06/14 11:42:42;;;;;;;;;5.75;5.75;16.50;99.90;;;;;;4935427;28;10879;-62
2022/06/14 11:45:32;;;;;;;;;9.00;8.00;16.50;99.90;;;;;;4932954;28;11605;-61
2022/06/14 11:48:14;;;;;;;;;5.00;5.00;16.50;99.90;;;;;;4939486;28;10947;-60
2022/06/14 11:51:23;;;;;;;;;5.00;5.00;16.50;99.90;;;;;;4935430;28;10883;-61
2022/06/14 11:54:17;;;;;;;;;7.00;6.25;16.40;99.90;;;;;;4943160;28;10858;-62
2022/06/14 11:57:10;;;;;;;;;4.00;3.50;16.40;99.90;;;;;;4951204;28;10867;-62
2022/06/14 11:59:54;;;;;;;;;5.50;4.00;16.40;99.90;;;;;;4957559;28;10953;-61
2022/06/14 12:02:39;;;;;;;;;7.00;6.00;16.40;99.90;;;;;;4951659;28;10830;-61
2022/06/14 12:05:29;;;;;;;;;0.50;0.50;16.30;99.90;;;;;;4946535;28;10985;-60
2022/06/14 12:08:14;;;;;;;;;4.00;4.00;16.30;99.90;;;;;;4956104;28;10771;-61
2022/06/14 12:11:01;;;;;;;;;4.25;4.25;16.30;99.90;;;;;;4950649;28;10765;-61
2022/06/14 12:14:14;;;;;;;;;6.00;6.00;16.30;99.90;;;;;;4949488;28;11134;-62
2022/06/14 12:17:20;;;;;;;;;5.75;5.75;16.30;99.90;;;;;;4926477;28;11051;-62
2022/06/14 12:20:13;;;;;;;;;4.75;4.75;16.20;99.90;;;;;;4921083;28;10987;-62
2022/06/14 12:23:11;;;;;;;;;4.25;4.25;16.20;99.90;;;;;;4925054;28;11456;-61
2022/06/14 12:28:45;;;;;;;;;3.25;3.25;16.20;99.90;;;;;;4933742;28;11081;-61
2022/06/14 12:31:22;;;;;;;;;5.50;5.50;16.20;99.90;;;;;;4925957;28;11081;-62
2022/06/14 12:34:02;;;;;;;;;3.75;3.75;16.20;99.90;;;;;;4920085;28;11645;-61
2022/06/14 12:36:40;;;;;;;;;7.00;5.75;16.20;99.90;;;;;;4930574;28;11692;-61
2022/06/14 12:39:30;;;;;;;;;6.50;5.25;16.20;99.90;;;;;;4928261;28;10855;-62
2022/06/14 12:42:18;;;;;;;;;4.25;4.25;16.10;99.90;;;;;;4937112;28;10844;-61
2022/06/14 12:45:16;;;;;;;;;5.00;5.00;16.10;99.90;;;;;;4908903;28;10851;-62
2022/06/14 12:48:27;;;;;;;;;5.50;5.50;16.10;99.90;;;;;;4916771;28;11060;-61
2022/06/14 12:51:11;;;;;;;;;4.00;4.00;16.10;99.90;;;;;;4872306;29;11029;-61
2022/06/14 12:53:49;;;;;;;;;5.75;5.75;16.10;99.90;;;;;;4870277;29;10901;-62
2022/06/14 12:56:29;;;;;;;;;4.00;3.25;16.10;99.90;;;;;;4915060;28;10868;-61
2022/06/14 12:59:15;;;;;;;;;5.25;3.00;16.10;99.90;;;;;;4934003;28;10984;-62
2022/06/14 13:02:06;;;;;;;;;6.50;5.25;16.10;99.90;;;;;;4932548;28;10941;-62
2022/06/14 13:04:58;;;;;;;;;6.00;4.00;16.10;99.90;;;;;;4934024;28;10819;-63
2022/06/14 13:08:11;;;;;;;;;7.00;5.25;16.10;99.90;;;;;;4922672;28;10857;-61
2022/06/14 13:10:58;;;;;;;;;6.00;4.25;16.10;99.90;;;;;;4929457;28;11021;-61
2022/06/14 13:13:56;;;;;;;;;5.75;5.75;16.10;99.90;;;;;;4929310;28;10823;-62
2022/06/14 13:16:41;;;;;;;;;6.25;6.25;16.00;99.90;;;;;;4922948;28;10962;-61
2022/06/14 13:19:29;;;;;;;;;4.00;4.00;16.00;99.90;;;;;;4946374;28;10944;-62
2022/06/14 13:22:38;;;;;;;;;5.50;5.50;16.00;99.90;;;;;;4931623;28;10865;-62
2022/06/14 13:25:43;;;;;;;;;4.00;4.00;16.00;99.90;;;;;;4952951;28;11091;-62
2022/06/14 13:28:32;;;;;;;;;4.00;4.00;16.00;99.90;;;;;;4900401;28;10882;-61
2022/06/14 13:31:34;;;;;;;;;5.75;5.25;16.00;99.90;;;;;;4949607;28;11126;-61
2022/06/14 13:34:43;;;;;;;;;4.25;4.25;16.00;99.90;;;;;;4871465;28;11018;-62
2022/06/14 13:38:03;;;;;;;;;4.75;4.75;16.00;99.90;;;;;;4953166;28;10854;-62
2022/06/14 13:40:44;;;;;;;;;5.50;5.50;16.00;99.90;;;;;;4895775;28;10947;-62
2022/06/14 13:43:38;;;;;;;;;4.50;4.50;15.90;99.90;;;;;;4934660;28;10910;-61
2022/06/14 13:46:42;;;;;;;;;5.75;5.75;15.90;99.90;;;;;;4917918;28;11068;-61
2022/06/14 13:49:26;;;;;;;;;7.50;7.25;16.00;99.90;;;;;;4934845;28;11057;-60
2022/06/14 13:52:11;;;;;;;;;6.00;6.00;16.00;99.90;;;;;;4952361;28;11136;-61
2022/06/14 13:55:13;;;;;;;;;8.00;6.50;16.00;99.90;;;;;;4936697;28;11543;-62
2022/06/14 13:58:10;;;;;;;;;7.00;7.00;16.00;99.90;;;;;;4937306;28;10966;-60
2022/06/14 14:01:02;;;;;;;;;7.25;5.50;16.00;99.90;;;;;;4949394;28;10947;-61
2022/06/14 14:04:00;;;;;;;;;6.25;5.25;16.00;99.90;;;;;;4947140;28;10887;-62
2022/06/14 14:06:51;;;;;;;;;4.00;4.00;16.10;99.90;;;;;;4951456;28;10763;-62
2022/06/14 14:09:46;;;;;;;;;7.25;6.75;16.10;99.90;;;;;;4950933;28;10792;-61
2022/06/14 14:12:26;;;;;;;;;6.00;5.00;16.10;99.90;;;;;;4935112;28;11118;-61
2022/06/14 14:15:03;;;;;;;;;8.00;5.00;16.10;99.90;;;;;;4951819;28;10962;-61
2022/06/14 14:17:52;;;;;;;;;8.00;7.75;16.10;99.90;;;;;;4929242;28;10846;-61
2022/06/14 14:20:47;;;;;;;;;5.25;5.25;16.20;99.90;;;;;;4926566;28;11007;-62
2022/06/14 14:23:26;;;;;;;;;7.75;6.50;16.20;99.90;;;;;;4944375;28;10810;-61
2022/06/14 14:26:06;;;;;;;;;9.00;7.50;16.20;99.90;;;;;;4930855;28;11056;-61
2022/06/14 14:28:51;;;;;;;;;8.00;7.00;16.20;99.90;;;;;;4942141;28;10840;-61
2022/06/14 14:31:31;;;;;;;;;8.75;8.75;16.30;99.90;;;;;;4930398;28;10773;-61
2022/06/14 14:34:11;;;;;;;;;22.00;22.00;16.30;99.90;;;;;;4928146;28;11802;-61
2022/06/14 14:36:45;;;;;;;;;25.25;21.50;16.40;99.90;;;;;;4928148;28;11676;-61
2022/06/14 14:39:32;;;;;;;;;32.25;28.25;16.40;99.90;;;;;;4935629;28;11595;-60
2022/06/14 14:42:24;;;;;;;;;19.25;19.25;16.40;99.90;;;;;;4934815;28;11639;-60
2022/06/14 14:45:10;;;;;;;;;12.25;12.00;16.50;99.90;;;;;;4938236;28;11755;-59
2022/06/14 14:48:03;;;;;;;;;9.75;9.75;16.50;99.90;;;;;;4931271;28;11237;-62